Highway Village, Mississippi
Current Conditions -  °F | °C
As of 9:15 PM on Thursday 27 Nov 2014 (Local Time) from KHEZ Reporting Station
Clear Clear  
Wind Chill: 36°   Ceiling: Unl
Heat Index: 36°   Visibility: 10mi
Dew Point: 28°   Wind: 3mph
Humidity: 75%   Direction: 30°NNE
Pressure: 30.48"   Gusts: NA
Location:  31.1784°N, 91.3525°W
Report Text: KHEZ 280315Z AUTO 03003KT 10SM CLR 02/M02 A3048 RMK AO1
Loading
Personal Weather Stations






























Interactive Weather Map New forecast layout! Learn more

10-Day Weather Forecast

Advertisements
Track Severe Weather on mobile